createdAt,value
2023-04-12T00:00:57.876Z,80.55
2023-04-12T00:01:57.906Z,81.02
2023-04-12T00:02:57.923Z,81.02
2023-04-12T00:03:58.208Z,81.02
2023-04-12T00:04:58.045Z,80.93
2023-04-12T00:05:57.886Z,80.64
2023-04-12T00:06:57.924Z,80.74
2023-04-12T00:07:57.894Z,80.83
2023-04-12T00:08:57.898Z,80.83
2023-04-12T00:09:57.909Z,81.02
2023-04-12T00:10:57.914Z,81.02
2023-04-12T00:11:57.914Z,80.93
2023-04-12T00:12:57.912Z,80.64
2023-04-12T00:13:58.139Z,80.64
2023-04-12T00:14:57.932Z,81.02
2023-04-12T00:15:57.938Z,80.83
2023-04-12T00:16:57.923Z,81.02
2023-04-12T00:17:57.991Z,81.02
2023-04-12T00:18:57.938Z,80.83
2023-04-12T00:19:57.934Z,80.64
2023-04-12T00:20:57.965Z,81.02
2023-04-12T00:21:57.959Z,80.93
2023-04-12T00:22:57.942Z,81.30
2023-04-12T00:23:58.060Z,81.40
2023-04-12T00:24:57.951Z,80.93
2023-04-12T00:25:57.976Z,81.59
2023-04-12T00:26:57.955Z,80.93
2023-04-12T00:27:57.959Z,81.12
2023-04-12T00:28:57.969Z,81.59
2023-04-12T00:29:57.976Z,81.21
2023-04-12T00:30:57.991Z,81.21
2023-04-12T00:31:57.978Z,81.12
2023-04-12T00:32:58.021Z,81.21
2023-04-12T00:33:58.272Z,81.59
2023-04-12T00:34:57.986Z,81.30
2023-04-12T00:35:58.051Z,81.12
2023-04-12T00:36:58.008Z,80.93
2023-04-12T00:37:58.019Z,80.83
2023-04-12T00:38:58.004Z,80.64
2023-04-12T00:39:57.996Z,80.74
2023-04-12T00:40:58.001Z,80.83
2023-04-12T00:41:58.005Z,80.55
2023-04-12T00:42:58.014Z,80.55
2023-04-12T00:43:58.106Z,80.93
2023-04-12T00:44:58.017Z,80.07
2023-04-12T00:45:58.027Z,80.07
2023-04-12T00:46:58.105Z,80.83
2023-04-12T00:47:58.055Z,80.83
2023-04-12T00:48:58.030Z,80.79
2023-04-12T00:49:58.033Z,80.60
2023-04-12T00:50:58.030Z,80.60
2023-04-12T00:51:58.032Z,80.69
2023-04-12T00:52:58.071Z,80.41
2023-04-12T00:53:58.231Z,80.60
2023-04-12T00:54:58.048Z,80.51
2023-04-12T00:55:58.051Z,80.60
2023-04-12T00:56:58.055Z,80.51
2023-04-12T00:57:58.061Z,80.98
2023-04-12T00:58:58.058Z,80.60
2023-04-12T00:59:58.057Z,81.17
2023-04-12T01:00:58.095Z,80.98
2023-04-12T10:37:43.431Z,62.14
2023-04-12T10:38:43.466Z,62.62
2023-04-12T10:39:43.400Z,63.19
2023-04-12T10:40:43.428Z,63.00
2023-04-12T10:41:43.440Z,63.29
2023-04-12T10:42:43.448Z,63.10
2023-04-12T10:43:43.447Z,63.00
2023-04-12T10:44:43.453Z,63.10
2023-04-12T10:45:43.442Z,63.19
2023-04-12T10:46:43.558Z,63.57
2023-04-12T10:47:43.566Z,63.67
2023-04-12T10:48:43.555Z,63.67
2023-04-12T10:49:43.474Z,63.10
2023-04-12T10:50:43.509Z,63.39
2023-04-12T10:51:43.508Z,63.19
2023-04-12T10:52:43.509Z,63.39
2023-04-12T10:53:43.547Z,63.10
2023-04-12T10:54:43.509Z,62.87
2023-04-12T10:55:43.537Z,63.07
2023-04-12T10:56:43.575Z,63.45
2023-04-12T10:57:43.580Z,63.73
2023-04-12T10:58:43.598Z,63.26
2023-04-12T10:59:47.669Z,63.07
2023-04-12T11:00:43.707Z,63.16
2023-04-12T11:01:43.700Z,63.07
2023-04-12T11:02:43.732Z,62.59
2023-04-12T11:03:43.710Z,62.78
2023-04-12T11:04:43.678Z,63.26
2023-04-12T11:05:43.680Z,63.07
2023-04-12T11:06:43.606Z,62.87
2023-04-12T11:07:43.611Z,63.16
2023-04-12T11:08:43.628Z,62.87
2023-04-12T11:09:43.756Z,63.26
2023-04-12T11:10:43.628Z,63.54
2023-04-12T11:11:43.657Z,63.45
2023-04-12T11:12:43.641Z,63.80
2023-04-12T11:13:43.650Z,64.09
2023-04-12T11:14:43.661Z,63.93
2023-04-12T11:15:43.662Z,63.70
2023-04-12T11:16:43.735Z,64.02
2023-04-12T11:17:43.718Z,64.69
2023-04-12T11:18:43.715Z,64.47
2023-04-12T11:19:43.754Z,64.85
2023-04-12T11:20:43.722Z,64.56
2023-04-12T11:21:43.709Z,64.94
2023-04-12T11:22:43.729Z,65.42
2023-04-12T11:23:43.733Z,65.71
2023-04-12T11:24:43.777Z,65.80
2023-04-12T11:25:43.808Z,65.61
2023-04-12T11:26:43.740Z,66.66
2023-04-12T11:27:43.745Z,66.85
2023-04-12T11:28:43.751Z,67.05
2023-04-12T11:29:43.790Z,67.24
2023-04-12T11:30:43.773Z,67.52
2023-04-12T11:31:43.839Z,67.71
2023-04-12T11:32:43.826Z,68.10
2023-04-12T11:33:43.795Z,68.29
2023-04-12T11:34:43.802Z,69.02
2023-04-12T11:35:43.804Z,69.31
2023-04-12T11:36:43.804Z,69.31
2023-04-12T11:37:43.819Z,69.59
2023-04-12T11:38:43.826Z,69.68
2023-04-12T11:39:43.834Z,70.16
2023-04-12T11:40:43.836Z,71.50
2023-04-12T11:41:43.858Z,71.21
2023-04-12T11:42:43.843Z,71.88
2023-04-12T11:43:43.850Z,71.75
2023-04-12T11:44:56.290Z,72.80
2023-04-12T11:45:43.883Z,72.71
2023-04-12T11:46:43.872Z,72.89
2023-04-12T11:47:43.954Z,73.08
2023-04-12T11:48:43.887Z,73.28
2023-04-12T11:49:43.950Z,74.23
2023-04-12T11:50:44.021Z,74.04
2023-04-12T11:51:43.904Z,73.85
2023-04-12T11:52:43.900Z,74.52
2023-04-12T11:53:43.920Z,74.42
2023-04-12T11:54:43.923Z,74.52
2023-04-12T11:55:43.928Z,75.18
2023-04-12T11:56:43.932Z,75.28
2023-04-12T11:57:43.953Z,75.37
2023-04-12T11:58:43.947Z,75.57
2023-04-12T11:59:43.951Z,75.37
2023-04-12T12:00:43.960Z,75.85
2023-04-12T12:01:43.991Z,76.42
2023-04-12T12:02:55.988Z,75.85
2023-04-12T12:03:44.374Z,76.42
2023-04-12T12:04:44.213Z,76.52
2023-04-12T12:05:44.091Z,76.81
2023-04-12T12:06:44.173Z,77.38
2023-04-12T12:07:43.991Z,77.67
2023-04-12T12:08:43.996Z,77.67
2023-04-12T12:09:44.009Z,78.14
2023-04-12T12:10:52.269Z,78.72
2023-04-12T12:11:44.013Z,78.39
2023-04-12T12:12:44.019Z,78.96
2023-04-12T12:13:44.050Z,79.91
2023-04-12T12:14:44.027Z,80.39
2023-04-12T12:15:44.067Z,80.39
2023-04-12T12:16:44.045Z,80.87
2023-04-12T12:17:44.089Z,80.68
2023-04-12T12:18:44.055Z,81.25
2023-04-12T12:19:44.080Z,81.82
2023-04-12T12:20:44.059Z,81.54
2023-04-12T12:21:44.069Z,82.11
2023-04-12T12:22:44.078Z,82.64
2023-04-12T12:23:44.090Z,83.40
2023-04-12T12:24:44.086Z,83.59
2023-04-12T12:25:44.081Z,83.40
2023-04-12T12:26:44.090Z,83.31
2023-04-12T12:27:44.145Z,83.88
2023-04-12T12:28:44.096Z,83.84
2023-04-12T12:29:44.136Z,84.12
2023-04-12T12:30:44.114Z,84.36
2023-04-12T12:31:44.126Z,84.22
2023-04-12T12:32:44.215Z,85.17
2023-04-12T12:34:00.307Z,86.22
2023-04-12T12:34:44.147Z,86.03
2023-04-12T12:35:44.138Z,86.03
2023-04-12T12:36:44.142Z,86.69
2023-04-12T12:37:44.141Z,86.60
2023-04-12T12:38:44.152Z,86.51
2023-04-12T12:39:44.158Z,86.88
2023-04-12T12:40:44.167Z,86.88
2023-04-12T12:41:44.173Z,87.36
2023-04-12T12:57:13.279Z,89.32
2023-04-12T12:58:13.153Z,89.75
2023-04-12T12:59:13.147Z,90.41
2023-04-12T13:00:13.146Z,90.36
2023-04-12T13:01:13.163Z,90.75
2023-04-12T13:02:13.266Z,91.41
2023-04-12T13:03:13.343Z,91.31
2023-04-12T13:04:13.254Z,91.41
2023-04-12T13:05:13.262Z,91.89
2023-04-12T13:06:13.180Z,91.99
2023-04-12T13:07:13.177Z,92.08
2023-04-12T13:08:13.188Z,91.79
2023-04-12T13:09:13.193Z,92.08
2023-04-12T13:10:13.219Z,92.08
2023-04-12T13:11:13.198Z,93.03
2023-04-12T13:12:13.198Z,93.22
2023-04-12T13:13:13.245Z,92.94
2023-04-12T13:14:13.211Z,92.65
2023-04-12T13:15:22.463Z,93.51
2023-04-12T13:16:13.244Z,93.79
2023-04-12T13:17:13.218Z,93.93
2023-04-12T13:18:13.221Z,93.70
2023-04-12T13:19:13.241Z,93.93
2023-04-12T13:20:13.228Z,94.32
2023-04-12T13:21:13.240Z,94.03
2023-04-12T13:22:13.238Z,94.32
2023-04-12T13:23:13.246Z,94.41
2023-04-12T13:24:13.246Z,93.93
2023-04-12T13:25:13.250Z,94.60
2023-04-12T13:26:13.263Z,95.08
2023-04-12T13:27:15.155Z,94.51
2023-04-12T13:28:13.274Z,94.89
2023-04-12T13:29:13.297Z,95.08
2023-04-12T13:30:13.279Z,94.89
2023-04-12T13:31:13.303Z,94.70
2023-04-12T13:32:13.346Z,94.79
2023-04-12T13:33:18.347Z,95.46
2023-04-12T13:34:13.293Z,95.27
2023-04-12T13:35:13.298Z,95.84
2023-04-12T13:36:13.301Z,95.46
2023-04-12T13:37:13.300Z,95.46
2023-04-12T13:38:13.304Z,95.84
2023-04-12T13:39:13.313Z,95.84
2023-04-12T13:40:13.335Z,95.84
2023-04-12T13:41:13.330Z,95.94
2023-04-12T13:42:13.324Z,95.94
2023-04-12T13:43:13.328Z,95.84
2023-04-12T13:44:13.341Z,96.41
2023-04-12T13:45:13.420Z,96.12
2023-04-12T13:46:13.397Z,96.12
2023-04-12T13:47:13.348Z,95.84
2023-04-12T13:48:13.414Z,96.32
2023-04-12T13:49:13.376Z,96.17
2023-04-12T13:50:13.369Z,96.36
2023-04-12T13:51:13.366Z,96.94
2023-04-12T13:52:13.382Z,96.32
2023-04-12T13:53:13.373Z,96.60
2023-04-12T13:54:13.385Z,96.56
2023-04-12T13:55:13.389Z,96.84
2023-04-12T13:56:13.388Z,97.51
2023-04-12T13:57:13.401Z,97.22
2023-04-12T13:58:13.407Z,97.03
2023-04-12T13:59:13.414Z,97.03
2023-04-12T14:00:13.412Z,97.41
2023-04-12T14:01:13.501Z,96.94
2023-04-12T14:02:13.490Z,97.41
2023-04-12T14:03:13.507Z,97.41
2023-04-12T14:04:13.499Z,97.41
2023-04-12T14:05:13.431Z,97.22
2023-04-12T14:06:13.445Z,97.22
2023-04-12T14:07:13.468Z,97.51
2023-04-12T14:08:13.452Z,97.41
2023-04-12T14:09:13.481Z,97.13
2023-04-12T14:10:13.460Z,97.51
2023-04-12T14:11:13.465Z,97.80
2023-04-12T14:12:13.470Z,97.99
2023-04-12T14:13:13.477Z,98.18
2023-04-12T14:14:16.118Z,98.18
2023-04-12T14:15:13.482Z,97.89
2023-04-12T14:16:13.494Z,98.27
2023-04-12T14:17:13.626Z,97.61
2023-04-12T14:18:13.498Z,97.89
2023-04-12T14:19:13.499Z,97.89
2023-04-12T14:20:13.510Z,97.61
2023-04-12T14:21:13.518Z,98.08
2023-04-12T14:22:13.513Z,97.99
2023-04-12T14:23:13.529Z,98.18
2023-04-12T14:24:13.523Z,97.80
2023-04-12T14:25:13.536Z,98.18
2023-04-12T14:26:13.545Z,98.27
2023-04-12T14:27:14.989Z,98.08
2023-04-12T14:28:13.545Z,98.18
2023-04-12T14:29:13.595Z,97.99
2023-04-12T14:30:13.562Z,98.22
2023-04-12T14:31:13.653Z,98.22
2023-04-12T14:32:13.577Z,98.03
2023-04-12T14:33:13.697Z,97.94
2023-04-12T14:34:13.572Z,97.84
2023-04-12T14:35:13.578Z,98.13
2023-04-12T14:36:13.589Z,98.03
2023-04-12T14:37:13.586Z,97.94
2023-04-12T14:38:13.594Z,98.22
2023-04-12T14:39:14.899Z,98.79
2023-04-12T14:40:13.604Z,98.70
2023-04-12T14:41:13.608Z,98.70
2023-04-12T14:42:13.611Z,98.41
2023-04-12T14:43:13.673Z,98.89
2023-04-12T14:44:13.622Z,98.70
2023-04-12T14:45:13.629Z,98.70
2023-04-12T14:46:13.679Z,98.89
2023-04-12T14:47:13.642Z,98.89
2023-04-12T14:48:13.652Z,99.55
2023-04-12T14:49:13.680Z,99.18
2023-04-12T14:50:13.671Z,99.27
2023-04-12T14:51:13.662Z,99.37
2023-04-12T14:52:13.657Z,99.18
2023-04-12T14:53:13.664Z,99.46
2023-04-12T14:54:13.675Z,98.99
2023-04-12T14:55:13.681Z,99.08
2023-04-12T14:56:13.684Z,99.27
2023-04-12T14:57:13.695Z,99.75
2023-04-12T14:58:13.691Z,99.55
2023-04-12T14:59:13.718Z,99.46
2023-04-12T15:00:13.723Z,99.27
2023-04-12T15:01:13.704Z,99.46
2023-04-12T15:02:13.830Z,99.75
2023-04-12T15:03:14.089Z,99.99
2023-04-12T15:04:13.866Z,99.84
2023-04-12T15:05:13.820Z,99.99
2023-04-12T15:06:13.726Z,99.99
2023-04-12T15:07:13.735Z,99.99
2023-04-12T15:08:13.734Z,99.99
2023-04-12T15:09:13.744Z,99.99
2023-04-12T15:10:13.745Z,99.99
2023-04-12T15:11:13.747Z,99.99
2023-04-12T15:12:13.760Z,99.99
2023-04-12T15:13:13.794Z,99.99
2023-04-12T15:14:13.770Z,99.99
2023-04-12T15:15:13.766Z,99.99
2023-04-12T15:16:13.831Z,99.99
2023-04-12T15:17:13.784Z,99.99
2023-04-12T15:18:13.784Z,99.99
2023-04-12T15:19:19.919Z,99.99
2023-04-12T15:20:13.806Z,99.99
2023-04-12T15:21:13.827Z,99.99
2023-04-12T15:22:13.802Z,99.99
2023-04-12T15:25:54.692Z,99.99
2023-04-12T15:26:54.701Z,99.99
2023-04-12T15:27:54.700Z,99.99
2023-04-12T15:28:54.704Z,99.99
2023-04-12T15:29:54.709Z,99.99
2023-04-12T15:30:54.707Z,99.99
2023-04-12T15:31:54.770Z,99.99
2023-04-12T15:32:54.740Z,99.99
2023-04-12T15:33:54.759Z,99.99
2023-04-12T15:34:54.728Z,99.99
2023-04-12T15:35:54.739Z,99.99
2023-04-12T15:36:54.811Z,99.99
2023-04-12T15:37:54.800Z,99.99
2023-04-12T15:38:54.757Z,99.99
2023-04-12T15:39:54.757Z,99.99
2023-04-12T15:40:54.760Z,99.99
2023-04-12T15:41:54.767Z,99.99
2023-04-12T15:42:54.764Z,99.99
2023-04-12T15:43:54.773Z,99.99
2023-04-12T15:44:54.784Z,99.99
2023-04-12T15:45:55.081Z,99.99
2023-04-12T15:47:07.851Z,99.99
2023-04-12T15:47:54.852Z,99.99
2023-04-12T15:48:54.808Z,99.99
2023-04-12T15:49:54.807Z,99.99
2023-04-12T15:50:54.804Z,99.99
2023-04-12T15:51:54.834Z,99.99
2023-04-12T15:52:54.848Z,99.99
2023-04-12T15:53:54.829Z,99.99
2023-04-12T15:54:54.824Z,99.99
2023-04-12T15:55:55.019Z,99.99
2023-04-12T15:56:54.845Z,99.99
2023-04-12T15:57:54.856Z,99.99
2023-04-12T15:58:54.942Z,99.99
2023-04-12T15:59:54.848Z,99.99
2023-04-12T16:00:55.073Z,99.99
2023-04-12T16:01:54.934Z,99.99
2023-04-12T16:02:55.189Z,99.99
2023-04-12T16:03:55.061Z,99.99
2023-04-12T16:04:54.938Z,99.99
2023-04-12T16:05:55.087Z,99.99
2023-04-12T16:06:54.883Z,99.99
2023-04-12T16:07:54.894Z,99.99
2023-04-12T16:08:54.925Z,99.99
2023-04-12T16:09:54.897Z,99.99
2023-04-12T16:10:54.942Z,99.99
2023-04-12T16:11:54.920Z,99.99
2023-04-12T16:12:54.919Z,99.99
2023-04-12T16:13:54.972Z,99.99
2023-04-12T16:14:54.920Z,99.99
2023-04-12T16:15:54.929Z,99.99
2023-04-12T16:16:54.933Z,99.99
2023-04-12T16:17:54.964Z,99.99
2023-04-12T16:18:54.951Z,99.99
2023-04-12T16:19:54.950Z,99.99
2023-04-12T16:20:54.976Z,99.99
2023-04-12T16:21:54.974Z,99.99
2023-04-12T16:22:54.985Z,99.99
2023-04-12T16:23:54.963Z,99.99
2023-04-12T16:24:54.995Z,99.99
2023-04-12T16:25:54.981Z,99.99
2023-04-12T16:26:54.981Z,99.99
2023-04-12T16:27:54.988Z,99.99
2023-04-12T16:28:55.100Z,99.99
2023-04-12T16:29:55.000Z,99.99
2023-04-12T16:30:55.046Z,99.99
2023-04-12T16:31:55.086Z,99.99
2023-04-12T16:32:55.057Z,99.99
2023-04-12T16:33:55.016Z,99.99
2023-04-12T16:34:55.023Z,99.99
2023-04-12T16:35:55.032Z,99.99
2023-04-12T16:36:55.024Z,99.99
2023-04-12T16:37:55.038Z,99.99
2023-04-12T16:38:55.492Z,99.99
2023-04-12T16:39:55.071Z,99.99
2023-04-12T16:40:55.074Z,99.99
2023-04-12T16:41:55.053Z,99.99
2023-04-12T16:42:55.057Z,99.99
2023-04-12T16:43:55.077Z,99.99
2023-04-12T16:44:55.079Z,99.99
2023-04-12T16:45:55.072Z,99.99
2023-04-12T16:46:55.223Z,99.99
2023-04-12T16:47:55.108Z,99.99
2023-04-12T16:48:55.235Z,99.99
2023-04-12T16:49:55.098Z,99.99
2023-04-12T16:50:55.100Z,99.99
2023-04-12T16:51:55.111Z,99.99
2023-04-12T16:52:55.108Z,99.99
2023-04-12T16:53:55.205Z,99.99
2023-04-12T16:54:55.120Z,99.99
2023-04-12T16:55:56.752Z,99.99
2023-04-12T16:56:55.153Z,99.99
2023-04-12T16:57:55.153Z,99.99
2023-04-12T16:58:55.143Z,99.99
2023-04-12T16:59:55.196Z,99.99
2023-04-12T17:00:55.150Z,99.99
2023-04-12T17:01:55.163Z,99.99
2023-04-12T17:02:55.262Z,99.99
2023-04-12T17:03:55.332Z,99.99
2023-04-12T17:04:55.167Z,99.99
2023-04-12T17:05:55.179Z,99.99
2023-04-12T17:06:55.188Z,99.99
2023-04-12T17:07:55.185Z,99.99
2023-04-12T17:08:55.219Z,99.99
2023-04-12T17:09:55.198Z,99.99
2023-04-12T17:10:55.209Z,99.99
2023-04-12T17:11:55.200Z,99.99
2023-04-12T17:12:55.256Z,99.99
2023-04-12T17:13:55.219Z,99.99
2023-04-12T17:14:55.228Z,99.99
2023-04-12T17:15:55.266Z,99.99
2023-04-12T17:16:55.233Z,99.99
2023-04-12T17:17:55.260Z,99.99
2023-04-12T17:18:55.237Z,99.99
2023-04-12T17:19:55.243Z,99.99
2023-04-12T17:20:55.244Z,99.99
2023-04-12T17:21:55.249Z,99.99
2023-04-12T17:22:55.257Z,99.99
2023-04-12T17:23:55.264Z,99.99
2023-04-12T17:24:55.285Z,99.99
2023-04-12T17:25:55.266Z,99.99
2023-04-12T17:26:55.282Z,99.99
2023-04-12T17:27:55.296Z,99.99
2023-04-12T17:28:55.311Z,99.99
2023-04-12T17:29:55.288Z,99.99
2023-04-12T17:30:55.302Z,99.99
2023-04-12T17:31:55.308Z,99.99
2023-04-12T17:32:55.326Z,99.99
2023-04-12T17:33:55.527Z,99.99
2023-04-12T17:34:55.327Z,99.99
2023-04-12T17:35:55.329Z,99.99
2023-04-12T17:36:55.329Z,99.99
2023-04-12T17:37:55.344Z,99.99
2023-04-12T17:38:57.129Z,99.99
2023-04-12T17:39:55.346Z,99.99
2023-04-12T17:40:55.354Z,99.99
2023-04-12T17:41:55.353Z,99.99
2023-04-12T17:42:55.356Z,99.99
2023-04-12T17:43:55.559Z,99.99
2023-04-12T17:44:55.468Z,99.99
2023-04-12T17:45:55.411Z,99.99
2023-04-12T17:46:55.380Z,99.99
2023-04-12T17:47:55.433Z,99.99
2023-04-12T17:48:55.507Z,99.99
2023-04-12T17:49:55.397Z,99.99
2023-04-12T17:50:55.390Z,99.99
2023-04-12T17:51:55.390Z,99.99
2023-04-12T17:52:55.408Z,99.99
2023-04-12T17:53:55.415Z,99.99
2023-04-12T17:54:55.408Z,99.99
2023-04-12T17:55:55.421Z,99.99
2023-04-12T17:56:55.418Z,99.99
2023-04-12T17:57:55.435Z,99.99
2023-04-12T17:58:55.617Z,99.99
2023-04-12T17:59:55.445Z,99.99
2023-04-12T18:00:55.463Z,99.99
2023-04-12T18:01:55.580Z,99.99
2023-04-12T18:02:55.549Z,99.99
2023-04-12T18:03:55.583Z,99.99
2023-04-12T18:04:55.470Z,99.99
2023-04-12T18:05:55.476Z,99.99
2023-04-12T18:06:55.477Z,99.99
2023-04-12T18:07:55.472Z,99.99
2023-04-12T18:08:55.627Z,99.99
2023-04-12T18:09:55.485Z,99.99
2023-04-12T18:10:55.510Z,99.99
2023-04-12T18:11:55.497Z,99.99
2023-04-12T18:12:55.497Z,99.99
2023-04-12T18:13:55.706Z,99.99
2023-04-12T18:14:55.532Z,99.99
2023-04-12T18:15:55.534Z,99.99
2023-04-12T18:16:55.549Z,99.99
2023-04-12T18:17:55.565Z,99.99
2023-04-12T18:18:55.585Z,99.99
2023-04-12T18:19:55.545Z,99.99
2023-04-12T18:20:55.535Z,99.99
2023-04-12T18:21:55.539Z,99.99
2023-04-12T18:22:55.544Z,99.99
2023-04-12T18:23:55.594Z,99.99
2023-04-12T18:24:55.563Z,99.99
2023-04-12T18:25:55.559Z,99.99
2023-04-12T18:26:55.572Z,99.99
2023-04-12T18:27:55.576Z,99.99
2023-04-12T18:28:55.680Z,99.99
2023-04-12T18:29:55.585Z,99.99
2023-04-12T18:30:57.223Z,99.99
2023-04-12T18:31:55.627Z,99.99
2023-04-12T18:32:55.657Z,99.99
2023-04-12T18:33:55.767Z,99.99
2023-04-12T18:34:55.602Z,99.99
2023-04-12T18:35:55.607Z,99.99
2023-04-12T18:36:55.621Z,99.99
2023-04-12T18:37:55.624Z,99.99
2023-04-12T18:38:55.641Z,99.99
2023-04-12T18:39:55.669Z,99.99
2023-04-12T18:40:55.637Z,99.99
2023-04-12T18:41:55.644Z,99.99
2023-04-12T18:42:55.644Z,99.99
2023-04-12T18:43:55.677Z,99.99
2023-04-12T18:44:55.652Z,99.99
2023-04-12T18:45:55.666Z,99.99
2023-04-12T18:46:55.750Z,99.99
2023-04-12T18:47:55.704Z,99.99
2023-04-12T18:48:55.692Z,99.99
2023-04-12T18:49:55.681Z,99.99
2023-04-12T18:50:55.688Z,99.99
2023-04-12T18:51:55.692Z,99.99
2023-04-12T18:52:55.700Z,99.99
2023-04-12T18:53:55.753Z,99.99
2023-04-12T18:54:55.702Z,99.99
2023-04-12T18:55:55.715Z,99.99
2023-04-12T18:56:55.711Z,99.99
2023-04-12T18:57:55.720Z,99.99
2023-04-12T18:58:56.339Z,99.99
2023-04-12T18:59:55.788Z,99.99
2023-04-12T19:00:55.753Z,99.99
2023-04-12T19:01:55.776Z,99.99
2023-04-12T19:02:55.813Z,99.99
2023-04-12T19:03:55.969Z,99.99
2023-04-12T19:04:55.775Z,99.99
2023-04-12T19:05:55.758Z,99.99
2023-04-12T19:06:55.761Z,99.99
2023-04-12T19:07:55.759Z,99.99
2023-04-12T19:08:55.766Z,99.99
2023-04-12T19:09:55.773Z,99.99
2023-04-12T19:10:55.781Z,99.99
2023-04-12T19:11:55.778Z,99.99
2023-04-12T19:12:55.782Z,99.99
2023-04-12T19:13:55.872Z,99.99
2023-04-12T19:14:55.793Z,99.99
2023-04-12T19:15:55.845Z,99.99
2023-04-12T19:16:55.811Z,99.99
2023-04-12T19:17:55.861Z,99.99
2023-04-12T19:18:55.819Z,99.99
2023-04-12T19:19:55.833Z,99.99
2023-04-12T19:20:55.842Z,99.99
2023-04-12T19:21:55.914Z,99.99
2023-04-12T19:22:55.829Z,99.99
2023-04-12T19:23:56.004Z,99.99
2023-04-12T19:24:55.840Z,99.99
2023-04-12T19:25:55.849Z,99.99
2023-04-12T19:26:55.856Z,99.99
2023-04-12T19:27:55.859Z,99.99
2023-04-12T19:28:55.950Z,99.99
2023-04-12T19:29:55.866Z,99.99
2023-04-12T19:30:55.867Z,99.99
2023-04-12T19:31:55.972Z,99.99
2023-04-12T19:32:55.908Z,99.99
2023-04-12T19:33:56.009Z,99.99
2023-04-12T19:34:55.892Z,99.99
2023-04-12T19:35:55.902Z,99.99
2023-04-12T19:36:55.927Z,99.99
2023-04-12T19:37:55.907Z,99.99
2023-04-12T19:38:56.150Z,99.99
2023-04-12T19:39:55.914Z,99.99
2023-04-12T19:40:55.918Z,99.99
2023-04-12T19:41:55.920Z,99.99
2023-04-12T19:42:55.926Z,99.99
2023-04-12T19:43:55.957Z,99.99
2023-04-12T19:44:55.935Z,99.99
2023-04-12T19:45:55.981Z,99.99
2023-04-12T19:46:55.954Z,99.99
2023-04-12T19:47:55.977Z,99.99
2023-04-12T19:48:56.129Z,99.99
2023-04-12T19:49:55.958Z,99.99
2023-04-12T19:50:55.974Z,99.99
2023-04-12T19:51:55.984Z,99.99
2023-04-12T19:52:55.994Z,99.99
2023-04-12T19:53:56.063Z,99.99
2023-04-12T19:54:55.989Z,99.99
2023-04-12T19:55:55.998Z,99.99
2023-04-12T19:56:56.011Z,99.99
2023-04-12T19:57:56.001Z,99.99
2023-04-12T19:58:56.136Z,99.99
2023-04-12T19:59:56.012Z,99.99
2023-04-12T20:00:56.041Z,99.99
2023-04-12T20:01:56.060Z,99.99
2023-04-12T20:02:56.073Z,99.99
2023-04-12T20:03:56.114Z,99.99
2023-04-12T20:04:56.029Z,99.99
2023-04-12T20:05:56.033Z,99.99
2023-04-12T20:06:56.037Z,99.99
2023-04-12T20:07:56.251Z,99.99
2023-04-12T20:08:56.402Z,99.99
2023-04-12T20:09:56.052Z,99.99
2023-04-12T20:10:56.064Z,99.99
2023-04-12T20:11:56.060Z,99.99
2023-04-12T20:12:56.072Z,99.99
2023-04-12T20:13:56.086Z,99.99
2023-04-12T20:14:56.084Z,99.99
2023-04-12T20:15:56.087Z,99.99
2023-04-12T20:16:56.155Z,99.99
2023-04-12T20:17:56.181Z,99.99
2023-04-12T20:18:56.304Z,99.99
2023-04-12T20:19:57.395Z,99.99
2023-04-12T20:20:56.116Z,99.99
2023-04-12T20:21:56.156Z,99.99
2023-04-12T20:22:56.121Z,99.99
2023-04-12T20:23:56.148Z,99.99
2023-04-12T20:24:56.148Z,99.99
2023-04-12T20:25:56.147Z,99.99
2023-04-12T20:26:56.132Z,99.99
2023-04-12T20:27:56.138Z,99.99
2023-04-12T20:28:56.290Z,99.99
2023-04-12T20:29:56.168Z,99.99
2023-04-12T20:30:56.205Z,99.99
2023-04-12T20:31:56.166Z,99.99
2023-04-12T20:32:56.213Z,99.99
2023-04-12T20:33:56.180Z,99.99
2023-04-12T20:34:56.183Z,99.99
2023-04-12T20:35:56.175Z,99.99
2023-04-12T20:36:56.185Z,99.99
2023-04-12T20:37:56.191Z,99.99
2023-04-12T20:38:56.403Z,99.99
2023-04-12T20:39:56.199Z,99.99
2023-04-12T20:40:56.220Z,99.99
2023-04-12T20:41:56.210Z,99.99
2023-04-12T20:42:56.214Z,99.99
2023-04-12T20:43:56.220Z,99.99
2023-04-12T20:44:56.225Z,99.99
2023-04-12T20:45:56.293Z,99.99
2023-04-12T20:46:56.313Z,99.99
2023-04-12T20:47:56.288Z,99.99
2023-04-12T20:48:56.811Z,99.99
2023-04-12T20:49:56.260Z,99.99
2023-04-12T20:50:56.287Z,99.99
2023-04-12T20:51:56.294Z,99.99
2023-04-12T20:52:56.262Z,99.99
2023-04-12T20:53:56.267Z,99.99
2023-04-12T20:54:56.279Z,99.99
2023-04-12T20:55:56.274Z,99.99
2023-04-12T20:56:56.304Z,99.99
2023-04-12T20:57:56.280Z,99.99
2023-04-12T20:58:56.666Z,99.99
2023-04-12T20:59:56.288Z,99.99
2023-04-12T21:00:56.291Z,99.99
2023-04-12T21:01:56.370Z,99.99
2023-04-12T21:02:56.457Z,99.99
2023-04-12T21:03:56.425Z,99.99
2023-04-12T21:04:58.803Z,99.99
2023-04-12T21:05:56.321Z,99.99
2023-04-12T21:06:56.322Z,99.99
2023-04-12T21:07:56.324Z,99.99
2023-04-12T21:08:56.717Z,99.99
2023-04-12T21:09:56.345Z,99.99
2023-04-12T21:10:56.353Z,99.99
2023-04-12T21:11:56.352Z,99.99
2023-04-12T21:12:56.369Z,99.99
2023-04-12T21:13:56.353Z,99.99
2023-04-12T21:14:56.366Z,99.99
2023-04-12T21:15:56.397Z,99.99
2023-04-12T21:16:56.378Z,99.99
2023-04-12T21:17:56.430Z,99.99
2023-04-12T21:18:56.655Z,99.99
2023-04-12T21:19:56.384Z,99.99
2023-04-12T21:20:56.388Z,99.99
2023-04-12T21:21:56.405Z,99.99
2023-04-12T21:22:56.406Z,99.99
2023-04-12T21:23:56.418Z,99.99
2023-04-12T21:24:56.410Z,99.99
2023-04-12T21:25:56.419Z,99.99
2023-04-12T21:26:56.427Z,99.99
2023-04-12T21:27:56.429Z,99.99
2023-04-12T21:28:56.634Z,99.99
2023-04-12T21:29:56.435Z,99.99
2023-04-12T21:30:56.446Z,99.99
2023-04-12T21:31:56.505Z,99.99
2023-04-12T21:32:56.516Z,99.99
2023-04-12T21:33:56.458Z,99.99
2023-04-12T21:34:56.461Z,99.99
2023-04-12T21:35:56.498Z,99.99
2023-04-12T21:36:56.468Z,99.99
2023-04-12T21:37:56.478Z,99.99
2023-04-12T21:38:56.705Z,99.99
2023-04-12T21:39:56.480Z,99.99
2023-04-12T21:40:56.492Z,99.99
2023-04-12T21:41:56.497Z,99.99
2023-04-12T21:42:56.499Z,99.99
2023-04-12T21:43:56.504Z,99.99
2023-04-12T21:44:56.589Z,99.99
2023-04-12T21:45:56.616Z,99.99
2023-04-12T21:46:56.511Z,99.99
2023-04-12T21:47:56.542Z,99.99
2023-04-12T21:48:56.731Z,99.99
2023-04-12T21:49:56.525Z,99.99
2023-04-12T21:50:56.530Z,99.99
2023-04-12T21:51:56.536Z,99.99
2023-04-12T21:52:56.545Z,99.99
2023-04-12T21:53:56.552Z,99.99
2023-04-12T21:54:56.558Z,99.99
2023-04-12T21:55:56.552Z,99.99
2023-04-12T21:56:56.568Z,99.99
2023-04-12T21:57:56.575Z,99.99
2023-04-12T21:58:56.806Z,99.99
2023-04-12T21:59:56.573Z,99.99
2023-04-12T22:00:56.630Z,99.99
2023-04-12T22:01:56.644Z,99.99
2023-04-12T22:02:56.744Z,99.99
2023-04-12T22:03:56.697Z,99.99
2023-04-12T22:04:56.593Z,99.99
2023-04-12T22:06:04.057Z,99.99
2023-04-12T22:06:56.612Z,99.79
2023-04-12T22:07:56.606Z,99.79
2023-04-12T22:08:56.838Z,99.60
2023-04-12T22:09:56.621Z,99.89
2023-04-12T22:10:56.626Z,99.79
2023-04-12T22:11:56.631Z,99.41
2023-04-12T22:12:56.638Z,99.79
2023-04-12T22:13:56.642Z,99.89
2023-04-12T22:14:56.652Z,99.41
2023-04-12T22:15:56.644Z,99.22
2023-04-12T22:16:56.699Z,98.94
2023-04-12T22:17:56.723Z,99.32
2023-04-12T22:18:56.865Z,99.51
2023-04-12T22:19:56.672Z,99.03
2023-04-12T22:20:56.660Z,99.03
2023-04-12T22:21:56.667Z,99.60
2023-04-12T22:22:56.679Z,99.03
2023-04-12T22:23:57.144Z,99.22
2023-04-12T22:24:56.680Z,99.32
2023-04-12T22:25:56.692Z,99.03
2023-04-12T22:26:56.694Z,99.41
2023-04-12T22:27:56.694Z,98.74
2023-04-12T22:28:56.731Z,98.84
2023-04-12T22:29:56.703Z,98.94
2023-04-12T22:30:56.755Z,98.74
2023-04-12T22:31:56.711Z,99.41
2023-04-12T22:32:56.773Z,98.94
2023-04-12T22:33:56.987Z,99.03
2023-04-12T22:35:05.326Z,99.13
2023-04-12T22:35:56.724Z,99.13
2023-04-12T22:36:56.731Z,99.13
2023-04-12T22:37:56.738Z,99.22
2023-04-12T22:38:56.763Z,99.13
2023-04-12T22:39:56.748Z,99.41
2023-04-12T22:40:56.755Z,98.84
2023-04-12T22:41:56.762Z,98.84
2023-04-12T22:42:56.762Z,98.46
2023-04-12T22:43:56.858Z,98.55
2023-04-12T22:44:56.762Z,98.65
2023-04-12T22:45:56.780Z,98.94